Time;durP1;ratioP1;P1;durP2;ratioP2;P2;SDS_P1;SDS_P2;PMS_P1;PMS_P2;Temp;Humidity;BMP_temperature;BMP_pressure;BME280_temperature;BME280_humidity;BME280_pressure;Samples;Min_cycle;Max_cycle;Signal;HPM_P1;HPM_P2
2023/11/02 00:03:07;;;;;;;7.1;3.8;;;;;;;5.15;88.12;;;;;
2023/11/02 00:14:07;;;;;;;7.1;3.8;;;;;;;5.05;87.85;;;;;
2023/11/02 00:24:07;;;;;;;8.9;3.9;;;;;;;4.85;87.55;;;;;
2023/11/02 00:35:07;;;;;;;8.9;3.9;;;;;;;4.8;87.6;;;;;
2023/11/02 00:45:07;;;;;;;8.9;3.9;;;;;;;4.77;87.28;;;;;
2023/11/02 00:55:07;;;;;;;7.9;3.7;;;;;;;4.69;87.08;;;;;
2023/11/02 01:06:07;;;;;;;7.9;3.7;;;;;;;4.64;87.31;;;;;
2023/11/02 01:16:07;;;;;;;7.9;3.7;;;;;;;4.65;87.31;;;;;
2023/11/02 01:27:08;;;;;;;8.5;4.2;;;;;;;4.53;87.56;;;;;
2023/11/02 01:38:07;;;;;;;8.5;4.2;;;;;;;4.51;87.96;;;;;
2023/11/02 01:48:07;;;;;;;8.5;4.2;;;;;;;4.45;87.9;;;;;
2023/11/02 01:59:07;;;;;;;5.9;3.6;;;;;;;4.51;87.89;;;;;
2023/11/02 02:09:07;;;;;;;5.9;3.6;;;;;;;4.53;87.61;;;;;
2023/11/02 02:20:07;;;;;;;7.3;3.7;;;;;;;4.41;87.91;;;;;
2023/11/02 02:30:07;;;;;;;7.3;3.7;;;;;;;4.43;88.52;;;;;
2023/11/02 02:41:07;;;;;;;7.3;3.7;;;;;;;4.46;88.13;;;;;
2023/11/02 02:52:07;;;;;;;9;3.7;;;;;;;4.46;88.64;;;;;
2023/11/02 03:03:07;;;;;;;9;3.7;;;;;;;4.46;88.55;;;;;
2023/11/02 03:13:07;;;;;;;9;3.7;;;;;;;4.45;89.27;;;;;
2023/11/02 03:23:07;;;;;;;10.2;4.1;;;;;;;4.49;88.79;;;;;
2023/11/02 03:33:07;;;;;;;10.2;4.1;;;;;;;4.45;88.95;;;;;
2023/11/02 03:44:07;;;;;;;10.2;4.1;;;;;;;4.5;89.01;;;;;
2023/11/02 03:54:09;;;;;;;7.8;3.5;;;;;;;4.54;88.48;;;;;
2023/11/02 04:04:11;;;;;;;7.8;3.5;;;;;;;4.41;88.31;;;;;
2023/11/02 04:15:09;;;;;;;7.8;3.5;;;;;;;4.53;88.28;;;;;
2023/11/02 04:25:09;;;;;;;6.5;2.9;;;;;;;4.59;88.37;;;;;
2023/11/02 04:36:09;;;;;;;6.5;2.9;;;;;;;4.51;88.09;;;;;
2023/11/02 04:46:09;;;;;;;6.5;2.9;;;;;;;4.6;88.23;;;;;
2023/11/02 04:57:09;;;;;;;6.4;3.1;;;;;;;4.52;88.06;;;;;
2023/11/02 05:08:10;;;;;;;6.4;3.1;;;;;;;4.47;88.2;;;;;
2023/11/02 05:18:09;;;;;;;6.4;3.1;;;;;;;4.59;88.77;;;;;
2023/11/02 05:29:09;;;;;;;6.3;2.9;;;;;;;4.57;88.45;;;;;
2023/11/02 05:40:10;;;;;;;6.3;2.9;;;;;;;4.65;88.57;;;;;
2023/11/02 05:50:09;;;;;;;6.1;2.6;;;;;;;5.14;90.23;;;;;
2023/11/02 06:01:09;;;;;;;6.1;2.6;;;;;;;5.85;89.41;;;;;
2023/11/02 06:12:09;;;;;;;6.1;2.6;;;;;;;6.25;88.71;;;;;
2023/11/02 06:22:09;;;;;;;4.8;2.1;;;;;;;6.64;88.04;;;;;
2023/11/02 06:33:09;;;;;;;4.8;2.1;;;;;;;6.95;86.39;;;;;
2023/11/02 06:44:09;;;;;;;4.8;2.1;;;;;;;7.01;85.54;;;;;
2023/11/02 06:55:10;;;;;;;5.2;2.9;;;;;;;6.84;84.71;;;;;
2023/11/02 07:05:09;;;;;;;5.2;2.9;;;;;;;7.41;84.92;;;;;
2023/11/02 07:15:09;;;;;;;5.2;2.9;;;;;;;8.21;83.26;;;;;
2023/11/02 07:26:09;;;;;;;4.9;2.4;;;;;;;9.15;80.54;;;;;
2023/11/02 07:36:09;;;;;;;4.9;2.4;;;;;;;9.88;78.38;;;;;
2023/11/02 07:47:09;;;;;;;4.9;2.4;;;;;;;10.36;76.54;;;;;
2023/11/02 07:57:10;;;;;;;3.3;1.2;;;;;;;10.67;75.14;;;;;
2023/11/02 08:07:09;;;;;;;3.3;1.2;;;;;;;11.06;74.02;;;;;
2023/11/02 08:18:09;;;;;;;3.3;1.2;;;;;;;11.55;72.03;;;;;
2023/11/02 08:28:09;;;;;;;4.7;1.5;;;;;;;11.98;71.52;;;;;
2023/11/02 08:38:11;;;;;;;4.7;1.5;;;;;;;12.34;68.91;;;;;
2023/11/02 08:49:09;;;;;;;3.3;1.7;;;;;;;12.63;68.23;;;;;
2023/11/02 09:00:09;;;;;;;3.3;1.7;;;;;;;12.95;68.98;;;;;
2023/11/02 09:10:09;;;;;;;3.3;1.7;;;;;;;13.01;66.91;;;;;
2023/11/02 09:21:09;;;;;;;5.1;2.2;;;;;;;13.22;66.21;;;;;
2023/11/02 09:31:12;;;;;;;5.1;2.2;;;;;;;13.25;65.61;;;;;
2023/11/02 09:42:09;;;;;;;5.1;2.2;;;;;;;13.33;66.48;;;;;
2023/11/02 09:53:09;;;;;;;5;2;;;;;;;14.02;64.7;;;;;
2023/11/02 10:04:09;;;;;;;5;2;;;;;;;14.52;63.17;;;;;
2023/11/02 10:14:09;;;;;;;5;2;;;;;;;14.79;61.2;;;;;
2023/11/02 10:24:09;;;;;;;3.7;1.5;;;;;;;15.18;60.98;;;;;
2023/11/02 10:34:09;;;;;;;3.7;1.5;;;;;;;15.42;61.08;;;;;
2023/11/02 10:45:09;;;;;;;3.7;1.5;;;;;;;15.69;60.15;;;;;
2023/11/02 10:55:09;;;;;;;6.5;2.5;;;;;;;15.93;59.46;;;;;
2023/11/02 11:06:09;;;;;;;6.5;2.5;;;;;;;16.38;60.29;;;;;
2023/11/02 11:16:09;;;;;;;6.5;2.5;;;;;;;16.88;56.46;;;;;
2023/11/02 11:27:09;;;;;;;5.7;2.3;;;;;;;17.29;57.02;;;;;
2023/11/02 11:38:09;;;;;;;5.7;2.3;;;;;;;17.64;56.71;;;;;
2023/11/02 11:49:09;;;;;;;4.6;2.1;;;;;;;17.86;53.59;;;;;
2023/11/02 11:59:09;;;;;;;4.6;2.1;;;;;;;17.94;54;;;;;
2023/11/02 12:09:10;;;;;;;4.6;2.1;;;;;;;17.93;52.41;;;;;
2023/11/02 12:20:09;;;;;;;4.2;1.7;;;;;;;17.45;55.8;;;;;
2023/11/02 12:30:11;;;;;;;4.2;1.7;;;;;;;17.13;56.5;;;;;
2023/11/02 12:41:10;;;;;;;4.2;1.7;;;;;;;17.58;56.87;;;;;
2023/11/02 12:51:09;;;;;;;4.1;1.8;;;;;;;17.47;55.63;;;;;
2023/11/02 13:02:11;;;;;;;4.1;1.8;;;;;;;17.75;55.09;;;;;
2023/11/02 13:12:12;;;;;;;4.1;1.8;;;;;;;17.48;55.63;;;;;
2023/11/02 13:23:09;;;;;;;3.3;1.6;;;;;;;17.46;54.49;;;;;
2023/11/02 13:34:09;;;;;;;3.3;1.6;;;;;;;17.31;55.43;;;;;
2023/11/02 13:44:09;;;;;;;3.3;1.6;;;;;;;17.33;56.6;;;;;
2023/11/02 13:55:09;;;;;;;4.7;2.4;;;;;;;17.17;59.86;;;;;
2023/11/02 14:05:09;;;;;;;4.7;2.4;;;;;;;17.12;59.29;;;;;
2023/11/02 14:15:09;;;;;;;4.7;2.4;;;;;;;16.79;57.99;;;;;
2023/11/02 14:25:09;;;;;;;4.6;2.1;;;;;;;16.4;58.87;;;;;
2023/11/02 14:36:12;;;;;;;4.6;2.1;;;;;;;15.88;60.21;;;;;
2023/11/02 14:46:09;;;;;;;4.6;2.1;;;;;;;15.27;61.77;;;;;
2023/11/02 14:57:09;;;;;;;4.1;2.4;;;;;;;14.67;63.48;;;;;
2023/11/02 15:07:09;;;;;;;4.1;2.4;;;;;;;14.15;64.32;;;;;
2023/11/02 15:17:09;;;;;;;4.1;2.4;;;;;;;13.6;65.66;;;;;
2023/11/02 15:28:09;;;;;;;5.2;2.2;;;;;;;13.1;67;;;;;
2023/11/02 15:38:09;;;;;;;5.2;2.2;;;;;;;12.77;68.28;;;;;
2023/11/02 15:48:09;;;;;;;5.2;2.2;;;;;;;12.43;69.24;;;;;
2023/11/02 15:59:10;;;;;;;6.4;2.2;;;;;;;12.26;69.49;;;;;
2023/11/02 16:09:09;;;;;;;6.4;2.2;;;;;;;12.02;70.02;;;;;
2023/11/02 16:20:16;;;;;;;5.7;2.6;;;;;;;11.94;70.22;;;;;
2023/11/02 16:31:09;;;;;;;5.7;2.6;;;;;;;11.86;70.57;;;;;
2023/11/02 16:42:10;;;;;;;5.7;2.6;;;;;;;11.73;71.31;;;;;
2023/11/02 16:52:09;;;;;;;6.6;3.2;;;;;;;11.68;71.48;;;;;
2023/11/02 17:02:11;;;;;;;6.6;3.2;;;;;;;11.61;71.22;;;;;
2023/11/02 17:13:14;;;;;;;6.6;3.2;;;;;;;11.52;71.92;;;;;
2023/11/02 17:44:23;;;;;;;9.1;5.6;;;;;;;11.58;70.76;;;;;
2023/11/02 18:00:40;;;;;;;9.1;5.6;;;;;;;11.51;70.4;;;;;
2023/11/02 18:10:38;;;;;;;9.1;5.6;;;;;;;11.55;70.17;;;;;
2023/11/02 18:21:37;;;;;;;10.1;4.7;;;;;;;11.48;70.19;;;;;
2023/11/02 18:31:38;;;;;;;10.1;4.7;;;;;;;11.43;70.37;;;;;
2023/11/02 18:41:37;;;;;;;9.7;4.1;;;;;;;11.49;70.23;;;;;
2023/11/02 18:51:37;;;;;;;9.7;4.1;;;;;;;11.32;70.74;;;;;
2023/11/02 19:02:38;;;;;;;9.7;4.1;;;;;;;11.27;71.31;;;;;
2023/11/02 19:13:40;;;;;;;7.1;3.3;;;;;;;11.13;72.06;;;;;
2023/11/02 19:24:37;;;;;;;7.1;3.3;;;;;;;11.09;72.26;;;;;
2023/11/02 19:35:37;;;;;;;7.1;3.3;;;;;;;10.97;72.93;;;;;
2023/11/02 19:46:39;;;;;;;7.5;3.1;;;;;;;10.85;73.04;;;;;
2023/11/02 19:57:37;;;;;;;7.5;3.1;;;;;;;10.73;73.81;;;;;
2023/11/02 20:08:37;;;;;;;7.5;3.1;;;;;;;10.68;74.35;;;;;
2023/11/02 20:19:39;;;;;;;6.6;3.9;;;;;;;10.68;74.53;;;;;
2023/11/02 20:30:37;;;;;;;6.6;3.9;;;;;;;10.83;74.16;;;;;
2023/11/02 20:40:37;;;;;;;7.1;3.4;;;;;;;10.9;74.36;;;;;
2023/11/02 20:50:37;;;;;;;7.1;3.4;;;;;;;11.12;73.92;;;;;
2023/11/02 21:00:39;;;;;;;7.1;3.4;;;;;;;11.27;73.19;;;;;
2023/11/02 21:11:37;;;;;;;6.5;3.5;;;;;;;11.29;73.14;;;;;
2023/11/02 21:21:37;;;;;;;6.5;3.5;;;;;;;11.23;73.31;;;;;
2023/11/02 21:32:37;;;;;;;6.5;3.5;;;;;;;11.15;73.69;;;;;
2023/11/02 21:42:39;;;;;;;6.8;3.9;;;;;;;11.06;74.08;;;;;
2023/11/02 21:53:37;;;;;;;6.8;3.9;;;;;;;10.87;75.03;;;;;
2023/11/02 22:03:37;;;;;;;6.8;3.9;;;;;;;10.74;75.72;;;;;
2023/11/02 22:13:37;;;;;;;10.5;5.6;;;;;;;10.81;75.67;;;;;
2023/11/02 22:23:37;;;;;;;10.5;5.6;;;;;;;10.7;76.21;;;;;
2023/11/02 22:33:37;;;;;;;10.5;5.6;;;;;;;10.71;76.23;;;;;
2023/11/02 22:44:37;;;;;;;5.6;3.2;;;;;;;10.84;75.93;;;;;
2023/11/02 22:54:37;;;;;;;5.6;3.2;;;;;;;11.02;75.38;;;;;
2023/11/02 23:04:38;;;;;;;5.6;3.2;;;;;;;11.14;75.8;;;;;
2023/11/02 23:15:37;;;;;;;4.8;2.7;;;;;;;11.25;77.08;;;;;
2023/11/02 23:26:37;;;;;;;4.8;2.7;;;;;;;11.25;78.37;;;;;
2023/11/02 23:36:37;;;;;;;4.8;2.7;;;;;;;11.31;78.19;;;;;
2023/11/02 23:46:38;;;;;;;5.7;2.6;;;;;;;11.32;78.91;;;;;
2023/11/02 23:57:38;;;;;;;5.7;2.6;;;;;;;11.14;81.12;;;;;
